sensor_id;sensor_type;location;lat;lon;timestamp;pressure;altitude;pressure_sealevel;temperature;humidity
11038;BME280;5572;49.540;11.932;2024-02-28T00:01:51;96989.59;;;7.28;100.00
11038;BME280;5572;49.540;11.932;2024-02-28T00:04:19;96998.72;;;6.95;100.00
11038;BME280;5572;49.540;11.932;2024-02-28T00:06:45;96992.34;;;7.01;100.00
11038;BME280;5572;49.540;11.932;2024-02-28T00:09:12;96985.00;;;7.23;100.00
11038;BME280;5572;49.540;11.932;2024-02-28T00:11:42;96993.91;;;6.92;100.00
11038;BME280;5572;49.540;11.932;2024-02-28T00:14:09;96989.47;;;7.08;100.00
11038;BME280;5572;49.540;11.932;2024-02-28T00:16:36;96998.44;;;6.92;100.00
11038;BME280;5572;49.540;11.932;2024-02-28T00:19:03;96993.06;;;6.92;100.00
11038;BME280;5572;49.540;11.932;2024-02-28T00:21:30;96982.81;;;6.89;100.00
11038;BME280;5572;49.540;11.932;2024-02-28T00:23:56;96991.44;;;6.91;100.00
11038;BME280;5572;49.540;11.932;2024-02-28T00:26:23;97005.53;;;6.77;100.00
11038;BME280;5572;49.540;11.932;2024-02-28T00:28:49;96987.28;;;7.05;100.00
11038;BME280;5572;49.540;11.932;2024-02-28T00:31:16;96985.84;;;6.97;100.00
11038;BME280;5572;49.540;11.932;2024-02-28T00:33:42;96995.66;;;6.56;100.00
11038;BME280;5572;49.540;11.932;2024-02-28T00:36:10;96986.31;;;6.58;100.00
11038;BME280;5572;49.540;11.932;2024-02-28T00:38:36;96981.81;;;6.64;100.00
11038;BME280;5572;49.540;11.932;2024-02-28T00:41:03;96982.31;;;6.61;100.00
11038;BME280;5572;49.540;11.932;2024-02-28T00:43:29;96980.63;;;6.55;100.00
11038;BME280;5572;49.540;11.932;2024-02-28T00:45:56;96975.25;;;6.55;100.00
11038;BME280;5572;49.540;11.932;2024-02-28T00:48:23;96978.44;;;6.78;100.00
11038;BME280;5572;49.540;11.932;2024-02-28T00:50:50;96992.88;;;6.72;100.00
11038;BME280;5572;49.540;11.932;2024-02-28T00:53:19;97000.25;;;6.55;100.00
11038;BME280;5572;49.540;11.932;2024-02-28T00:55:46;96995.47;;;6.36;100.00
11038;BME280;5572;49.540;11.932;2024-02-28T00:58:13;96984.41;;;6.54;100.00
11038;BME280;5572;49.540;11.932;2024-02-28T01:00:39;96981.81;;;6.64;100.00
11038;BME280;5572;49.540;11.932;2024-02-28T01:03:06;96987.38;;;6.57;100.00
11038;BME280;5572;49.540;11.932;2024-02-28T01:05:34;96995.81;;;6.44;100.00
11038;BME280;5572;49.540;11.932;2024-02-28T01:08:01;97000.25;;;6.34;100.00
11038;BME280;5572;49.540;11.932;2024-02-28T01:10:29;96990.25;;;6.51;100.00
11038;BME280;5572;49.540;11.932;2024-02-28T01:12:55;96996.13;;;6.74;100.00
11038;BME280;5572;49.540;11.932;2024-02-28T01:15:22;97005.06;;;6.53;100.00
11038;BME280;5572;49.540;11.932;2024-02-28T01:17:48;96995.66;;;6.56;100.00
11038;BME280;5572;49.540;11.932;2024-02-28T01:20:15;96989.25;;;6.57;100.00
11038;BME280;5572;49.540;11.932;2024-02-28T01:22:42;97001.38;;;6.38;100.00
11038;BME280;5572;49.540;11.932;2024-02-28T01:25:09;96994.47;;;6.42;100.00
11038;BME280;5572;49.540;11.932;2024-02-28T01:27:37;96991.31;;;6.50;100.00
11038;BME280;5572;49.540;11.932;2024-02-28T01:30:05;96994.56;;;6.52;100.00
11038;BME280;5572;49.540;11.932;2024-02-28T01:32:32;97001.47;;;6.43;100.00
11038;BME280;5572;49.540;11.932;2024-02-28T01:34:58;97006.72;;;6.33;100.00
11038;BME280;5572;49.540;11.932;2024-02-28T01:37:25;96994.75;;;6.45;100.00
11038;BME280;5572;49.540;11.932;2024-02-28T01:39:51;96998.72;;;6.38;100.00
11038;BME280;5572;49.540;11.932;2024-02-28T01:42:18;96997.38;;;6.40;100.00
11038;BME280;5572;49.540;11.932;2024-02-28T01:44:47;97020.44;;;6.15;100.00
11038;BME280;5572;49.540;11.932;2024-02-28T01:47:15;96999.91;;;6.25;100.00
11038;BME280;5572;49.540;11.932;2024-02-28T01:49:42;96987.56;;;6.51;100.00
11038;BME280;5572;49.540;11.932;2024-02-28T01:52:09;96999.56;;;6.43;100.00
11038;BME280;5572;49.540;11.932;2024-02-28T01:54:36;96994.88;;;6.55;100.00
11038;BME280;5572;49.540;11.932;2024-02-28T01:57:03;96997.66;;;6.65;100.00
11038;BME280;5572;49.540;11.932;2024-02-28T01:59:31;97009.56;;;6.74;100.00
11038;BME280;5572;49.540;11.932;2024-02-28T02:01:59;97015.53;;;6.55;100.00
11038;BME280;5572;49.540;11.932;2024-02-28T02:04:25;97017.56;;;6.69;100.00
11038;BME280;5572;49.540;11.932;2024-02-28T02:06:52;97007.34;;;6.66;100.00
11038;BME280;5572;49.540;11.932;2024-02-28T02:09:19;97016.81;;;6.47;100.00
11038;BME280;5572;49.540;11.932;2024-02-28T02:11:46;97017.41;;;6.54;100.00
11038;BME280;5572;49.540;11.932;2024-02-28T02:14:13;97031.03;;;6.48;100.00
11038;BME280;5572;49.540;11.932;2024-02-28T02:16:39;97024.31;;;6.45;100.00
11038;BME280;5572;49.540;11.932;2024-02-28T02:19:08;97025.94;;;6.46;100.00
11038;BME280;5572;49.540;11.932;2024-02-28T02:21:40;97032.72;;;6.54;100.00
11038;BME280;5572;49.540;11.932;2024-02-28T02:24:09;97036.84;;;6.40;100.00
11038;BME280;5572;49.540;11.932;2024-02-28T02:26:35;97022.31;;;6.62;100.00
11038;BME280;5572;49.540;11.932;2024-02-28T02:29:02;97038.53;;;6.72;100.00
11038;BME280;5572;49.540;11.932;2024-02-28T02:31:29;97036.69;;;6.73;100.00
11038;BME280;5572;49.540;11.932;2024-02-28T02:33:55;97044.28;;;6.81;100.00
11038;BME280;5572;49.540;11.932;2024-02-28T02:36:22;97048.22;;;6.73;100.00
11038;BME280;5572;49.540;11.932;2024-02-28T02:38:48;97057.25;;;6.62;100.00
11038;BME280;5572;49.540;11.932;2024-02-28T02:41:16;97064.56;;;6.45;100.00
11038;BME280;5572;49.540;11.932;2024-02-28T02:43:43;97072.56;;;6.40;100.00
11038;BME280;5572;49.540;11.932;2024-02-28T02:46:09;97044.94;;;6.66;100.00
11038;BME280;5572;49.540;11.932;2024-02-28T02:48:36;97044.03;;;6.82;100.00
11038;BME280;5572;49.540;11.932;2024-02-28T02:51:03;97064.84;;;6.70;100.00
11038;BME280;5572;49.540;11.932;2024-02-28T02:53:29;97065.28;;;6.83;100.00
11038;BME280;5572;49.540;11.932;2024-02-28T02:55:56;97069.34;;;6.65;100.00
11038;BME280;5572;49.540;11.932;2024-02-28T02:58:24;97069.31;;;6.60;100.00
11038;BME280;5572;49.540;11.932;2024-02-28T03:00:50;97077.97;;;6.67;100.00
11038;BME280;5572;49.540;11.932;2024-02-28T03:03:17;97078.81;;;6.67;100.00
11038;BME280;5572;49.540;11.932;2024-02-28T03:05:43;97089.84;;;6.71;100.00
11038;BME280;5572;49.540;11.932;2024-02-28T03:08:10;97111.94;;;6.35;100.00
11038;BME280;5572;49.540;11.932;2024-02-28T03:10:36;97100.53;;;6.66;100.00
11038;BME280;5572;49.540;11.932;2024-02-28T03:13:03;97105.34;;;6.64;100.00
11038;BME280;5572;49.540;11.932;2024-02-28T03:15:33;97120.13;;;6.45;100.00
11038;BME280;5572;49.540;11.932;2024-02-28T03:17:59;97117.69;;;6.65;100.00
11038;BME280;5572;49.540;11.932;2024-02-28T03:20:26;97112.63;;;6.89;100.00
11038;BME280;5572;49.540;11.932;2024-02-28T03:22:53;97123.84;;;6.86;100.00
11038;BME280;5572;49.540;11.932;2024-02-28T03:25:19;97129.09;;;6.98;100.00
11038;BME280;5572;49.540;11.932;2024-02-28T03:27:46;97143.72;;;6.85;100.00
11038;BME280;5572;49.540;11.932;2024-02-28T03:30:12;97151.94;;;6.74;100.00
11038;BME280;5572;49.540;11.932;2024-02-28T03:32:40;97142.44;;;6.88;100.00
11038;BME280;5572;49.540;11.932;2024-02-28T03:35:07;97153.59;;;6.80;100.00
11038;BME280;5572;49.540;11.932;2024-02-28T03:37:34;97147.47;;;6.84;100.00
11038;BME280;5572;49.540;11.932;2024-02-28T03:40:01;97152.22;;;6.78;100.00
11038;BME280;5572;49.540;11.932;2024-02-28T03:42:28;97148.78;;;6.82;100.00
11038;BME280;5572;49.540;11.932;2024-02-28T03:44:54;97155.94;;;6.72;100.00
11038;BME280;5572;49.540;11.932;2024-02-28T03:47:21;97161.75;;;6.64;100.00
11038;BME280;5572;49.540;11.932;2024-02-28T03:49:49;97169.28;;;6.45;100.00
11038;BME280;5572;49.540;11.932;2024-02-28T03:52:15;97159.31;;;6.62;100.00
11038;BME280;5572;49.540;11.932;2024-02-28T03:54:42;97159.25;;;6.57;100.00
11038;BME280;5572;49.540;11.932;2024-02-28T03:57:09;97157.06;;;6.33;100.00
11038;BME280;5572;49.540;11.932;2024-02-28T03:59:36;97159.56;;;6.61;100.00
11038;BME280;5572;49.540;11.932;2024-02-28T04:02:02;97174.44;;;6.30;100.00
11038;BME280;5572;49.540;11.932;2024-02-28T04:04:29;97165.72;;;6.40;100.00
11038;BME280;5572;49.540;11.932;2024-02-28T04:06:57;97173.72;;;6.56;100.00
11038;BME280;5572;49.540;11.932;2024-02-28T04:09:23;97170.59;;;6.43;100.00
11038;BME280;5572;49.540;11.932;2024-02-28T04:11:50;97180.13;;;6.34;100.00
11038;BME280;5572;49.540;11.932;2024-02-28T04:14:17;97174.84;;;6.39;100.00
11038;BME280;5572;49.540;11.932;2024-02-28T04:16:44;97169.94;;;6.36;100.00
11038;BME280;5572;49.540;11.932;2024-02-28T04:19:10;97174.41;;;6.47;100.00
11038;BME280;5572;49.540;11.932;2024-02-28T04:21:37;97177.22;;;6.57;100.00
11038;BME280;5572;49.540;11.932;2024-02-28T04:24:06;97176.69;;;6.76;100.00
11038;BME280;5572;49.540;11.932;2024-02-28T04:26:33;97189.13;;;6.44;100.00
11038;BME280;5572;49.540;11.932;2024-02-28T04:28:59;97184.84;;;6.65;100.00
11038;BME280;5572;49.540;11.932;2024-02-28T04:31:28;97194.56;;;6.49;100.00
11038;BME280;5572;49.540;11.932;2024-02-28T04:33:54;97181.28;;;6.59;100.00
11038;BME280;5572;49.540;11.932;2024-02-28T09:53:43;97497.53;;;7.67;100.00
11038;BME280;5572;49.540;11.932;2024-02-28T10:00:30;97487.16;;;7.97;100.00
11038;BME280;5572;49.540;11.932;2024-02-28T10:03:32;97484.91;;;8.10;100.00
11038;BME280;5572;49.540;11.932;2024-02-28T10:09:49;97495.72;;;7.94;100.00
11038;BME280;5572;49.540;11.932;2024-02-28T10:12:52;97473.72;;;8.66;100.00
11038;BME280;5572;49.540;11.932;2024-02-28T10:15:41;97511.03;;;8.10;100.00
11038;BME280;5572;49.540;11.932;2024-02-28T10:19:17;97505.31;;;7.85;100.00
11038;BME280;5572;49.540;11.932;2024-02-28T10:21:55;97494.56;;;8.06;100.00
11038;BME280;5572;49.540;11.932;2024-02-28T10:36:43;97474.78;;;8.91;100.00
11038;BME280;5572;49.540;11.932;2024-02-28T10:39:11;97479.44;;;9.37;100.00
11038;BME280;5572;49.540;11.932;2024-02-28T10:41:38;97463.50;;;9.72;100.00
11038;BME280;5572;49.540;11.932;2024-02-28T10:44:05;97470.19;;;9.64;100.00
11038;BME280;5572;49.540;11.932;2024-02-28T10:46:31;97489.94;;;9.34;100.00
11038;BME280;5572;49.540;11.932;2024-02-28T10:48:58;97490.25;;;9.37;100.00
11038;BME280;5572;49.540;11.932;2024-02-28T10:51:25;97507.59;;;9.15;100.00
11038;BME280;5572;49.540;11.932;2024-02-28T10:54:04;97512.06;;;9.04;100.00
11038;BME280;5572;49.540;11.932;2024-02-28T10:56:34;97514.06;;;9.14;100.00
11038;BME280;5572;49.540;11.932;2024-02-28T10:59:01;97524.97;;;8.97;100.00
11038;BME280;5572;49.540;11.932;2024-02-28T11:01:27;97525.06;;;8.81;100.00
11038;BME280;5572;49.540;11.932;2024-02-28T11:03:54;97536.09;;;8.53;100.00
11038;BME280;5572;49.540;11.932;2024-02-28T11:06:22;97526.44;;;8.57;100.00
11038;BME280;5572;49.540;11.932;2024-02-28T11:08:51;97529.94;;;8.57;100.00
11038;BME280;5572;49.540;11.932;2024-02-28T11:11:21;97530.84;;;8.89;100.00
11038;BME280;5572;49.540;11.932;2024-02-28T11:13:51;97514.78;;;9.04;100.00
11038;BME280;5572;49.540;11.932;2024-02-28T11:16:26;97518.16;;;8.90;100.00
11038;BME280;5572;49.540;11.932;2024-02-28T11:18:53;97514.19;;;8.97;100.00
11038;BME280;5572;49.540;11.932;2024-02-28T11:21:22;97525.06;;;8.81;100.00
11038;BME280;5572;49.540;11.932;2024-02-28T11:23:49;97519.44;;;8.82;100.00
11038;BME280;5572;49.540;11.932;2024-02-28T11:26:16;97518.06;;;8.80;100.00
11038;BME280;5572;49.540;11.932;2024-02-28T11:28:44;97511.00;;;9.05;100.00
11038;BME280;5572;49.540;11.932;2024-02-28T11:31:11;97496.72;;;9.36;100.00
11038;BME280;5572;49.540;11.932;2024-02-28T11:33:37;97496.22;;;9.44;100.00
11038;BME280;5572;49.540;11.932;2024-02-28T11:36:06;97493.22;;;9.40;100.00
11038;BME280;5572;49.540;11.932;2024-02-28T11:38:34;97526.00;;;8.65;100.00
11038;BME280;5572;49.540;11.932;2024-02-28T11:41:03;97519.38;;;8.77;100.00
11038;BME280;5572;49.540;11.932;2024-02-28T11:43:30;97507.53;;;9.10;100.00
11038;BME280;5572;49.540;11.932;2024-02-28T11:45:58;97532.81;;;8.72;100.00
11038;BME280;5572;49.540;11.932;2024-02-28T11:48:25;97511.63;;;9.12;100.00
11038;BME280;5572;49.540;11.932;2024-02-28T11:50:53;97511.81;;;9.37;100.00
11038;BME280;5572;49.540;11.932;2024-02-28T11:53:19;97524.75;;;9.04;100.00
11038;BME280;5572;49.540;11.932;2024-02-28T11:55:46;97504.44;;;9.59;100.00
11038;BME280;5572;49.540;11.932;2024-02-28T11:58:13;97494.84;;;9.78;100.00
11038;BME280;5572;49.540;11.932;2024-02-28T12:00:47;97497.81;;;9.81;100.00
11038;BME280;5572;49.540;11.932;2024-02-28T12:03:20;97497.53;;;9.78;100.00
11038;BME280;5572;49.540;11.932;2024-02-28T12:05:46;97537.00;;;8.85;100.00
11038;BME280;5572;49.540;11.932;2024-02-28T12:08:17;97518.03;;;9.06;100.00
11038;BME280;5572;49.540;11.932;2024-02-28T12:10:53;97530.34;;;8.92;100.00
11038;BME280;5572;49.540;11.932;2024-02-28T12:13:20;97528.59;;;8.81;100.00
11038;BME280;5572;49.540;11.932;2024-02-28T12:15:49;97516.75;;;9.14;100.00
11038;BME280;5572;49.540;11.932;2024-02-28T12:18:17;97530.03;;;9.20;100.00
11038;BME280;5572;49.540;11.932;2024-02-28T12:20:44;97506.31;;;9.58;100.00
11038;BME280;5572;49.540;11.932;2024-02-28T12:23:12;97518.94;;;9.48;100.00
11038;BME280;5572;49.540;11.932;2024-02-28T12:25:38;97533.75;;;9.14;100.00
11038;BME280;5572;49.540;11.932;2024-02-28T12:28:05;97538.44;;;8.71;100.00
11038;BME280;5572;49.540;11.932;2024-02-28T12:30:39;97508.19;;;9.58;100.00
11038;BME280;5572;49.540;11.932;2024-02-28T12:33:06;97516.00;;;9.54;100.00
11038;BME280;5572;49.540;11.932;2024-02-28T12:35:34;97529.47;;;9.18;100.00
11038;BME280;5572;49.540;11.932;2024-02-28T12:38:01;97545.38;;;8.88;100.00
11038;BME280;5572;49.540;11.932;2024-02-28T12:40:28;97533.72;;;9.09;100.00
11038;BME280;5572;49.540;11.932;2024-02-28T12:42:54;97532.47;;;9.22;100.00
11038;BME280;5572;49.540;11.932;2024-02-28T12:45:21;97518.97;;;9.53;100.00
11038;BME280;5572;49.540;11.932;2024-02-28T12:47:48;97505.97;;;9.91;100.00
11038;BME280;5572;49.540;11.932;2024-02-28T12:50:14;97506.34;;;10.05;100.00
11038;BME280;5572;49.540;11.932;2024-02-28T12:52:42;97509.50;;;9.92;100.00
11038;BME280;5572;49.540;11.932;2024-02-28T12:55:09;97526.22;;;9.47;100.00
11038;BME280;5572;49.540;11.932;2024-02-28T12:57:35;97520.34;;;9.60;100.00
11038;BME280;5572;49.540;11.932;2024-02-28T13:00:02;97513.66;;;9.63;100.00
11038;BME280;5572;49.540;11.932;2024-02-28T13:02:29;97511.69;;;9.58;100.00
11038;BME280;5572;49.540;11.932;2024-02-28T13:04:56;97519.97;;;9.42;100.00
11038;BME280;5572;49.540;11.932;2024-02-28T13:07:22;97517.50;;;9.40;100.00
11038;BME280;5572;49.540;11.932;2024-02-28T13:09:50;97522.06;;;9.35;100.00
11038;BME280;5572;49.540;11.932;2024-02-28T13:12:17;97532.84;;;9.04;100.00
11038;BME280;5572;49.540;11.932;2024-02-28T13:14:45;97515.09;;;9.39;100.00
11038;BME280;5572;49.540;11.932;2024-02-28T13:17:12;97524.00;;;9.08;100.00
11038;BME280;5572;49.540;11.932;2024-02-28T13:19:40;97507.25;;;9.38;100.00
11038;BME280;5572;49.540;11.932;2024-02-28T13:22:06;97509.47;;;9.45;100.00
11038;BME280;5572;49.540;11.932;2024-02-28T13:24:33;97515.22;;;9.23;100.00
11038;BME280;5572;49.540;11.932;2024-02-28T13:27:02;97534.88;;;8.65;100.00
11038;BME280;5572;49.540;11.932;2024-02-28T13:29:29;97518.34;;;9.10;100.00
11038;BME280;5572;49.540;11.932;2024-02-28T13:31:57;97521.69;;;9.22;100.00
11038;BME280;5572;49.540;11.932;2024-02-28T13:34:24;97535.66;;;8.87;100.00
11038;BME280;5572;49.540;11.932;2024-02-28T13:36:50;97527.16;;;9.00;100.00
11038;BME280;5572;49.540;11.932;2024-02-28T13:39:17;97525.56;;;9.04;100.00
11038;BME280;5572;49.540;11.932;2024-02-28T13:41:43;97520.53;;;9.13;100.00
11038;BME280;5572;49.540;11.932;2024-02-28T13:44:11;97530.84;;;8.89;100.00
11038;BME280;5572;49.540;11.932;2024-02-28T13:46:38;97520.69;;;9.01;100.00
11038;BME280;5572;49.540;11.932;2024-02-28T13:49:06;97515.31;;;9.33;100.00
11038;BME280;5572;49.540;11.932;2024-02-28T13:51:33;97505.16;;;9.44;100.00
11038;BME280;5572;49.540;11.932;2024-02-28T13:53:59;97508.13;;;9.48;100.00
11038;BME280;5572;49.540;11.932;2024-02-28T13:56:26;97517.34;;;9.52;100.00
11038;BME280;5572;49.540;11.932;2024-02-28T13:58:52;97532.44;;;9.17;100.00
11038;BME280;5572;49.540;11.932;2024-02-28T14:01:20;97530.59;;;9.22;100.00
11038;BME280;5572;49.540;11.932;2024-02-28T14:03:47;97538.84;;;8.84;100.00
11038;BME280;5572;49.540;11.932;2024-02-28T14:06:14;97515.78;;;9.25;100.00
11038;BME280;5572;49.540;11.932;2024-02-28T14:08:40;97524.75;;;9.35;100.00
11038;BME280;5572;49.540;11.932;2024-02-28T14:11:07;97511.41;;;9.55;100.00
11038;BME280;5572;49.540;11.932;2024-02-28T14:13:33;97526.31;;;9.26;100.00
11038;BME280;5572;49.540;11.932;2024-02-28T14:16:00;97527.44;;;9.35;100.00
11038;BME280;5572;49.540;11.932;2024-02-28T14:18:28;97520.28;;;9.45;100.00
11038;BME280;5572;49.540;11.932;2024-02-28T14:20:55;97517.81;;;9.44;100.00
11038;BME280;5572;49.540;11.932;2024-02-28T14:23:21;97521.28;;;9.39;100.00
11038;BME280;5572;49.540;11.932;2024-02-28T14:25:48;97539.75;;;9.21;100.00
11038;BME280;5572;49.540;11.932;2024-02-28T14:28:14;97533.34;;;9.27;100.00
11038;BME280;5572;49.540;11.932;2024-02-28T14:30:42;97523.97;;;9.35;100.00
11038;BME280;5572;49.540;11.932;2024-02-28T14:33:10;97535.56;;;8.77;100.00
11038;BME280;5572;49.540;11.932;2024-02-28T14:35:38;97520.66;;;9.28;100.00
11038;BME280;5572;49.540;11.932;2024-02-28T14:38:06;97501.22;;;9.62;100.00
11038;BME280;5572;49.540;11.932;2024-02-28T14:40:33;97494.59;;;9.84;100.00
11038;BME280;5572;49.540;11.932;2024-02-28T14:42:59;97530.28;;;9.19;100.00
11038;BME280;5572;49.540;11.932;2024-02-28T14:45:26;97522.63;;;9.37;100.00
11038;BME280;5572;49.540;11.932;2024-02-28T14:47:53;97509.78;;;9.54;100.00
11038;BME280;5572;49.540;11.932;2024-02-28T14:50:20;97502.13;;;9.77;100.00
11038;BME280;5572;49.540;11.932;2024-02-28T14:52:48;97510.47;;;9.71;100.00
11038;BME280;5572;49.540;11.932;2024-02-28T14:55:15;97507.00;;;9.80;100.00
11038;BME280;5572;49.540;11.932;2024-02-28T14:57:41;97501.88;;;9.84;100.00
11038;BME280;5572;49.540;11.932;2024-02-28T15:00:08;97500.16;;;10.04;100.00
11038;BME280;5572;49.540;11.932;2024-02-28T15:02:39;97497.16;;;10.06;100.00
11038;BME280;5572;49.540;11.932;2024-02-28T15:05:06;97531.59;;;9.11;100.00
11038;BME280;5572;49.540;11.932;2024-02-28T15:07:33;97505.81;;;10.03;100.00
11038;BME280;5572;49.540;11.932;2024-02-28T15:10:02;97504.63;;;9.94;100.00
11038;BME280;5572;49.540;11.932;2024-02-28T15:12:29;97498.00;;;10.11;100.00
11038;BME280;5572;49.540;11.932;2024-02-28T15:14:58;97527.38;;;9.25;100.00
11038;BME280;5572;49.540;11.932;2024-02-28T15:17:24;97509.06;;;9.68;100.00
11038;BME280;5572;49.540;11.932;2024-02-28T15:19:51;97516.31;;;9.58;100.00
11038;BME280;5572;49.540;11.932;2024-02-28T15:22:19;97550.06;;;8.71;100.00
11038;BME280;5572;49.540;11.932;2024-02-28T15:24:45;97530.34;;;9.24;100.00
11038;BME280;5572;49.540;11.932;2024-02-28T15:27:13;97523.97;;;9.39;100.00
11038;BME280;5572;49.540;11.932;2024-02-28T15:29:39;97531.22;;;9.34;100.00
11038;BME280;5572;49.540;11.932;2024-02-28T15:32:06;97516.59;;;9.61;100.00
11038;BME280;5572;49.540;11.932;2024-02-28T15:34:34;97520.97;;;9.67;100.00
11038;BME280;5572;49.540;11.932;2024-02-28T15:37:00;97511.53;;;9.70;100.00
11038;BME280;5572;49.540;11.932;2024-02-28T15:39:27;97511.59;;;9.80;100.00
11038;BME280;5572;49.540;11.932;2024-02-28T15:41:53;97511.03;;;9.78;100.00
11038;BME280;5572;49.540;11.932;2024-02-28T15:44:21;97524.19;;;9.69;100.00
11038;BME280;5572;49.540;11.932;2024-02-28T15:46:48;97520.78;;;9.42;100.00
11038;BME280;5572;49.540;11.932;2024-02-28T15:49:14;97535.13;;;9.17;100.00
11038;BME280;5572;49.540;11.932;2024-02-28T15:51:43;97519.44;;;9.45;100.00
11038;BME280;5572;49.540;11.932;2024-02-28T15:54:09;97507.53;;;9.77;100.00
11038;BME280;5572;49.540;11.932;2024-02-28T15:56:36;97520.34;;;9.60;100.00
11038;BME280;5572;49.540;11.932;2024-02-28T15:59:04;97541.75;;;9.04;100.00
11038;BME280;5572;49.540;11.932;2024-02-28T16:01:33;97542.31;;;8.80;100.00
11038;BME280;5572;49.540;11.932;2024-02-28T16:04:00;97531.34;;;8.86;100.00
11038;BME280;5572;49.540;11.932;2024-02-28T16:06:26;97529.28;;;8.98;100.00
11038;BME280;5572;49.540;11.932;2024-02-28T16:08:53;97524.84;;;9.14;100.00
11038;BME280;5572;49.540;11.932;2024-02-28T16:11:19;97527.38;;;9.25;100.00
11038;BME280;5572;49.540;11.932;2024-02-28T16:13:46;97527.50;;;9.09;100.00
11038;BME280;5572;49.540;11.932;2024-02-28T16:16:13;97524.50;;;9.05;100.00
11038;BME280;5572;49.540;11.932;2024-02-28T16:18:41;97527.56;;;8.87;100.00
11038;BME280;5572;49.540;11.932;2024-02-28T16:21:08;97530.25;;;8.87;100.00
11038;BME280;5572;49.540;11.932;2024-02-28T16:23:35;97532.75;;;8.67;100.00
11038;BME280;5572;49.540;11.932;2024-02-28T16:26:02;97526.38;;;8.52;100.00
11038;BME280;5572;49.540;11.932;2024-02-28T16:28:28;97544.41;;;8.09;100.00
11038;BME280;5572;49.540;11.932;2024-02-28T16:30:55;97533.00;;;8.18;100.00
11038;BME280;5572;49.540;11.932;2024-02-28T16:33:23;97528.66;;;8.17;100.00
11038;BME280;5572;49.540;11.932;2024-02-28T16:35:51;97529.50;;;8.01;100.00
11038;BME280;5572;49.540;11.932;2024-02-28T16:38:18;97542.31;;;7.73;100.00
11038;BME280;5572;49.540;11.932;2024-02-28T16:40:46;97545.81;;;7.57;100.00
11038;BME280;5572;49.540;11.932;2024-02-28T16:43:14;97555.69;;;7.35;100.00
11038;BME280;5572;49.540;11.932;2024-02-28T16:45:42;97548.44;;;7.19;100.00
11038;BME280;5572;49.540;11.932;2024-02-28T16:48:09;97550.78;;;6.99;100.00
11038;BME280;5572;49.540;11.932;2024-02-28T16:50:37;97569.41;;;6.89;100.00
11038;BME280;5572;49.540;11.932;2024-02-28T16:53:06;97556.38;;;6.82;100.00
11038;BME280;5572;49.540;11.932;2024-02-28T16:55:34;97556.97;;;6.83;100.00
11038;BME280;5572;49.540;11.932;2024-02-28T16:58:02;97572.44;;;6.65;100.00
11038;BME280;5572;49.540;11.932;2024-02-28T17:00:31;97592.28;;;6.25;100.00
11038;BME280;5572;49.540;11.932;2024-02-28T17:02:59;97598.50;;;6.25;100.00
11038;BME280;5572;49.540;11.932;2024-02-28T17:05:27;97612.50;;;6.16;100.00
11038;BME280;5572;49.540;11.932;2024-02-28T17:07:56;97614.59;;;6.14;100.00
11038;BME280;5572;49.540;11.932;2024-02-28T17:10:26;97622.22;;;5.94;100.00
11038;BME280;5572;49.540;11.932;2024-02-28T17:12:53;97638.41;;;5.65;100.00
11038;BME280;5572;49.540;11.932;2024-02-28T17:15:20;97649.13;;;5.65;100.00
11038;BME280;5572;49.540;11.932;2024-02-28T17:17:48;97643.16;;;5.74;100.00
11038;BME280;5572;49.540;11.932;2024-02-28T17:20:16;97663.97;;;5.26;100.00
11038;BME280;5572;49.540;11.932;2024-02-28T17:22:45;97660.13;;;5.22;100.00
11038;BME280;5572;49.540;11.932;2024-02-28T17:25:13;97661.69;;;5.53;100.00
11038;BME280;5572;49.540;11.932;2024-02-28T17:27:42;97665.06;;;5.48;100.00
11038;BME280;5572;49.540;11.932;2024-02-28T17:30:10;97671.88;;;5.21;100.00
11038;BME280;5572;49.540;11.932;2024-02-28T17:32:39;97695.88;;;4.87;100.00
11038;BME280;5572;49.540;11.932;2024-02-28T17:35:08;97693.81;;;5.01;100.00
11038;BME280;5572;49.540;11.932;2024-02-28T17:37:36;97701.50;;;4.97;100.00
11038;BME280;5572;49.540;11.932;2024-02-28T17:40:04;97689.44;;;5.06;100.00
11038;BME280;5572;49.540;11.932;2024-02-28T17:42:32;97700.56;;;4.74;100.00
11038;BME280;5572;49.540;11.932;2024-02-28T17:45:00;97691.56;;;4.86;100.00
11038;BME280;5572;49.540;11.932;2024-02-28T17:47:27;97694.78;;;4.59;100.00
11038;BME280;5572;49.540;11.932;2024-02-28T17:49:54;97702.69;;;4.54;100.00
11038;BME280;5572;49.540;11.932;2024-02-28T17:52:21;97695.81;;;4.58;100.00
11038;BME280;5572;49.540;11.932;2024-02-28T17:54:47;97696.94;;;4.50;100.00
11038;BME280;5572;49.540;11.932;2024-02-28T17:57:15;97691.00;;;4.48;100.00
11038;BME280;5572;49.540;11.932;2024-02-28T17:59:42;97702.28;;;4.32;100.00
11038;BME280;5572;49.540;11.932;2024-02-28T18:02:10;97710.53;;;4.31;100.00
11038;BME280;5572;49.540;11.932;2024-02-28T18:04:37;97708.22;;;4.34;100.00
11038;BME280;5572;49.540;11.932;2024-02-28T18:07:03;97712.91;;;4.21;100.00
11038;BME280;5572;49.540;11.932;2024-02-28T18:09:30;97715.81;;;3.95;100.00
11038;BME280;5572;49.540;11.932;2024-02-28T18:11:57;97715.31;;;3.87;100.00
11038;BME280;5572;49.540;11.932;2024-02-28T18:14:24;97733.41;;;3.60;100.00
11038;BME280;5572;49.540;11.932;2024-02-28T18:16:50;97724.19;;;3.81;100.00
11038;BME280;5572;49.540;11.932;2024-02-28T18:19:19;97718.56;;;3.89;100.00
11038;BME280;5572;49.540;11.932;2024-02-28T18:21:47;97702.91;;;3.92;100.00
11038;BME280;5572;49.540;11.932;2024-02-28T18:24:14;97715.78;;;3.77;100.00
11038;BME280;5572;49.540;11.932;2024-02-28T18:26:40;97720.69;;;3.56;100.00
11038;BME280;5572;49.540;11.932;2024-02-28T18:29:08;97708.03;;;3.69;100.00
11038;BME280;5572;49.540;11.932;2024-02-28T18:31:35;97712.59;;;3.69;100.00
11038;BME280;5572;49.540;11.932;2024-02-28T18:34:01;97729.38;;;3.51;100.00
11038;BME280;5572;49.540;11.932;2024-02-28T18:36:30;97724.06;;;3.45;100.00
11038;BME280;5572;49.540;11.932;2024-02-28T18:38:56;97716.53;;;3.60;100.00
11038;BME280;5572;49.540;11.932;2024-02-28T18:41:24;97718.75;;;3.38;100.00